Latest Coastal Weather Observations for Low Isles

IDQ60701

Issued at 3:21 pm EST Saturday 28 February 2015 (issued every 10 minutes, with the page automatically refreshed every 10 minutes)

About coastal observations | Map of coastal stations | Coastal observations for QLD | Marine services | Other Formats
Station Details ID: 031037 Name: LOW ISLES LIGHTHOUSE Lat: -16.38 Lon: 145.56 Height: 2.9 m
Data from the previous 72 hours. | See also: Recent months at Low Isles
Date/Time
EST
Temp

°C
Wind Pressure Rain
since 9am
mm
Weather Cloud Vis
km
Sea
Height
m
Swell
Dir
 
Speed
knots
Gust
knots
hPa Trend Height
m
Period
s
Dir
28/03:00pm 34.6 NE 11 13 1005.9 - 0.0 - - - - - - -
28/02:30pm 34.0 NE 12 14 1006.1 - 0.0 - - - - - - -
28/02:00pm 34.8 NE 10 11 1006.2 - 0.0 - - - - - - -
28/01:30pm 34.3 NNE 10 12 1006.4 - 0.0 - - - - - - -
28/01:00pm 34.6 NNE 9 11 1006.9 - 0.0 - - - - - - -
28/12:30pm 33.5 NNE 9 12 1007.4 - 0.0 - - - - - - -
28/12:00pm 32.6 N 8 11 1007.6 - 0.0 - - - - - - -
28/11:30am 32.7 N 7 9 1008.0 - 0.0 - - - - - - -
28/11:00am 32.0 N 4 6 1008.1 - 0.0 - - - - - - -
28/10:30am 30.9 NW 4 5 1008.3 - 0.0 - - - - - - -
28/10:00am 29.5 W 5 6 1008.4 - 0.0 - - - - - - -
28/09:30am 29.8 WNW 6 7 1008.3 - 0.0 - - - - - - -
28/09:00am 28.2 W 6 7 1008.1 - 0.0 Haze Cloudy 25 - - - -
28/08:30am 27.5 W 7 8 1008.1 - 0.0 - - - - - - -
28/08:00am 27.0 W 7 9 1007.8 - 0.0 - - - - - - -
28/07:30am 27.0 WSW 8 9 1007.3 - 0.0 - - - - - - -
28/07:00am 26.9 W 5 7 1006.9 - 0.0 - - - - - - -
28/06:30am 26.7 W 5 6 1006.4 - 0.0 - - - - - - -
28/06:00am 27.0 W 6 8 1006.3 - 0.0 - - - - - - -
28/05:30am 27.1 W 8 9 1006.0 - 0.0 - - - - - - -
28/05:00am 26.8 WNW 9 11 1005.8 - 0.0 - - - - - - -
28/04:30am 27.1 W 8 9 1005.9 - 0.0 - - - - - - -
28/04:00am 27.0 WNW 11 12 1005.9 - 0.0 - - - - - - -
28/03:30am 27.2 W 9 10 1006.0 - 0.0 - - - - - - -
28/03:00am 27.1 WNW 11 13 1005.8 - 0.0 - - - - - - -
28/02:30am 27.4 WNW 10 13 1006.3 - 0.0 - - - - - - -
28/02:00am 27.4 WNW 7 8 1006.8 - 0.0 - - - - - - -
28/01:30am 27.4 WNW 9 10 1007.4 - 0.0 - - - - - - -
28/01:00am 27.9 NW 11 13 1007.4 - 0.0 - - - - - - -
28/12:30am 28.0 WNW 10 11 1007.9 - 0.0 - - - - - - -
 
Date/Time
EST
Temp

°C
Wind Pressure Rain
since 9am
mm
Weather Cloud Vis
km
Sea
Height
m
Swell
Dir
 
Speed
knots
Gust
knots
hPa Trend Height
m
Period
s
Dir
27/11:30pm 27.7 NNW 6 7 1008.3 - 0.0 - - - - - - -
27/11:00pm 27.7 N 6 7 1008.6 - 0.0 - - - - - - -
27/10:30pm 27.8 N 7 8 1008.6 - 0.0 - - - - - - -
27/10:00pm 28.1 NNE 7 8 1008.4 - 0.0 - - - - - - -
27/09:30pm 28.2 NNE 8 9 1008.2 - 0.0 - - - - - - -
27/09:00pm 28.1 N 6 8 1007.9 - 0.0 - - - - - - -
27/08:30pm 28.2 NNE 6 6 1007.7 - 0.0 - - - - - - -
27/08:00pm 28.3 NNE 7 8 1007.3 - 0.0 - - - - - - -
27/07:30pm 28.7 NE 6 8 1006.9 - 0.0 - - - - - - -
27/07:00pm 28.9 NE 7 8 1006.4 - 0.0 - - - - - - -
27/06:30pm 29.9 NE 8 10 1005.9 - 0.0 - - - - - - -
27/06:00pm 30.6 NE 8 10 1005.5 - 0.0 - - - - - - -
27/05:30pm 31.1 NE 9 11 1004.9 - 0.0 - - - - - - -
27/05:00pm 32.1 NE 8 10 1004.6 - 0.0 - - - - - - -
27/04:30pm 33.5 ENE 6 8 1004.8 - 0.0 - - - - - - -
27/04:00pm 33.3 ENE 7 8 1004.8 - 0.0 - - - - - - -
27/03:30pm 34.3 ENE 9 11 1004.8 - 0.0 - - - - - - -
27/03:00pm 33.9 E 8 10 1005.1 - 0.0 Haze Mostly cloudy 18 - - - -
27/02:30pm 34.6 NE 10 12 1005.4 - 0.0 - - - - - - -
27/02:00pm 34.5 NE 10 12 1005.9 - 0.0 - - - - - - -
27/01:30pm 34.2 ENE 7 8 1006.6 - 0.0 - - - - - - -
27/01:00pm 33.5 ENE 5 6 1007.0 - 0.0 - - - - - - -
27/12:30pm 33.6 NE 5 7 1007.3 - 0.0 - - - - - - -
27/12:00pm 32.0 NNE 3 4 1007.6 - 0.0 - - - - - - -
27/11:30am 32.2 NNW 1 3 1008.0 - 0.0 - - - - - - -
27/11:00am 30.8 S 3 4 1008.3 - 0.0 - - - - - - -
27/10:30am 30.0 SW 3 5 1008.4 - 0.0 - - - - - - -
27/10:00am 29.6 SW 4 5 1008.4 - 0.0 - - - - - - -
27/09:30am 28.6 WSW 5 7 1008.4 - 0.0 - - - - - - -
27/09:00am 27.8 W 7 8 1008.0 - 0.0 Haze Cloudy 22 - - - -
27/08:30am 27.2 W 7 9 1008.1 - 0.0 - - - - - - -
27/08:00am 27.2 W 9 10 1007.8 - 0.0 - - - - - - -
27/07:30am 27.5 WNW 8 10 1007.5 - 0.0 - - - - - - -
27/07:00am 27.6 S 5 7 1007.1 - 0.0 - - - - - - -
27/06:30am 26.9 SE 4 6 1007.0 - 0.0 - - - - - - -
27/06:00am 27.5 SSW 5 9 1006.6 - 0.0 - - - - - - -
27/05:30am 27.8 SSW 7 10 1006.3 - 0.0 - - - - - - -
27/05:00am 27.7 WSW 8 9 1006.0 - 0.0 - - - - - - -
27/04:30am 27.6 W 7 9 1005.7 - 0.0 - - - - - - -
27/04:00am 27.8 WSW 6 8 1005.8 - 0.0 - - - - - - -
27/03:30am 27.8 S 5 6 1005.9 - 0.0 - - - - - - -
27/03:00am 27.1 SSE 2 5 1006.0 - 0.0 - - - - - - -
27/02:30am 27.0 CALM 0 0 1006.4 - 0.0 - - - - - - -
27/02:00am 27.0 SSE 4 5 1006.9 - 0.0 - - - - - - -
27/01:30am 27.0 ESE 3 4 1007.1 - 0.0 - - - - - - -
27/01:00am 27.4 SE 5 7 1007.4 - 0.0 - - - - - - -
27/12:30am 27.7 SE 6 8 1007.7 - 0.0 - - - - - - -
27/12:00am 27.5 ESE 5 8 1007.7 - 0.0 - - - - - - -
 
Date/Time
EST
Temp

°C
Wind Pressure Rain
since 9am
mm
Weather Cloud Vis
km
Sea
Height
m
Swell
Dir
 
Speed
knots
Gust
knots
hPa Trend Height
m
Period
s
Dir
26/11:30pm 27.7 ESE 5 6 1007.9 - 0.0 - - - - - - -
26/11:00pm 27.8 ESE 6 7 1008.2 - 0.0 - - - - - - -
26/10:30pm 28.1 ESE 7 9 1008.2 - 0.0 - - - - - - -
26/10:00pm 28.3 ESE 7 9 1008.0 - 0.0 - - - - - - -
26/09:30pm 28.0 ESE 5 7 1007.7 - 0.0 - - - - - - -
26/09:00pm 28.2 ESE 5 7 1007.2 - 0.0 - - - - - - -
26/08:30pm 28.6 ESE 8 9 1006.9 - 0.0 - - - - - - -
26/08:00pm 28.7 ESE 7 9 1006.4 - 0.0 - - - - - - -
26/07:30pm 28.7 ESE 6 7 1006.1 - 0.0 - - - - - - -
26/07:00pm 29.1 SE 8 9 1006.0 - 0.0 - - - - - - -
26/06:30pm 29.5 ESE 8 11 1005.8 - 0.0 - - - - - - -
26/06:00pm 29.9 SE 10 12 1005.2 - 0.0 - - - - - - -
26/05:30pm 30.2 ESE 10 13 1005.1 - 0.0 - - - - - - -
26/05:00pm 31.2 ESE 9 11 1005.0 - 0.0 - - - - - - -
26/04:30pm 32.2 ESE 8 11 1004.8 - 0.0 - - - - - - -
26/04:00pm 32.6 ESE 8 11 1004.8 - 0.0 - - - - - - -
26/03:30pm 34.1 E 7 9 1004.9 - 0.0 - - - - - - -
26/03:00pm 34.1 E 8 10 1005.0 - 0.0 Haze Mostly cloudy 20 - - - -
26/02:30pm 33.8 E 8 11 1005.4 - 0.0 - - - - - - -
26/02:00pm 34.7 E 8 10 1005.6 - 0.0 - - - - - - -
26/01:30pm 33.1 SE 7 9 1006.0 - 0.0 - - - - - - -
26/01:00pm 32.8 SSE 6 8 1006.4 - 0.0 - - - - - - -
26/12:30pm 31.5 SSE 6 8 1007.1 - 0.0 - - - - - - -
26/12:00pm 30.9 SSE 7 9 1007.7 - 0.0 - - - - - - -
26/11:30am 30.1 SE 7 9 1008.2 - 0.0 - - - - - - -
26/11:00am 29.8 SSE 8 10 1008.4 - 0.0 - - - - - - -
26/10:30am 29.8 SSE 8 9 1008.3 - 0.0 - - - - - - -
26/10:00am 29.6 SE 7 8 1008.5 - 0.0 - - - - - - -
26/09:30am 29.3 SE 8 9 1008.4 - 0.0 - - - - - - -
26/09:00am 29.2 SE 8 9 1008.3 - 0.0 Haze Cloudy 17 - - - -
26/08:30am 28.7 SSE 9 10 1008.3 - 0.0 - - - - - - -
26/08:00am 28.6 SSE 11 13 1008.2 - 0.0 - - - - - - -
26/07:30am 28.6 SE 9 11 1008.0 - 0.0 - - - - - - -
26/07:00am 28.3 SE 9 11 1007.7 - 0.0 - - - - - - -
26/06:30am 28.1 SE 8 10 1007.4 - 0.0 - - - - - - -
26/06:00am 27.9 S 7 8 1007.1 - 0.0 - - - - - - -
26/05:30am 28.0 SW 6 8 1007.0 - 0.0 - - - - - - -
26/05:00am 27.9 WSW 6 8 1006.9 - 0.0 - - - - - - -
26/04:30am 28.1 SW 4 5 1006.9 - 0.0 - - - - - - -
26/04:00am 27.9 WSW 2 4 1006.7 - 0.0 - - - - - - -
26/03:30am 28.0 W 3 4 1006.7 - 0.0 - - - - - - -
26/03:00am 28.0 S 5 6 1006.5 - 0.0 - - - - - - -
26/02:30am 28.2 SSE 6 7 1006.7 - 0.0 - - - - - - -
26/02:00am 28.0 SSE 5 6 1006.9 - 0.0 - - - - - - -
26/01:30am 27.5 SSE 5 6 1006.9 - 0.0 - - - - - - -
26/01:00am 28.5 SE 6 7 1006.9 - 0.0 - - - - - - -
26/12:30am 28.1 S 7 8 1007.1 - 0.0 - - - - - - -
26/12:00am 28.0 SSE 6 7 1007.3 - 0.0 - - - - - - -
 
Date/Time
EST
Temp

°C
Wind Pressure Rain
since 9am
mm
Weather Cloud Vis
km
Sea
Height
m
Swell
Dir
 
Speed
knots
Gust
knots
hPa Trend Height
m
Period
s
Dir
25/11:30pm 28.1 SSW 5 6 1007.5 - 0.0 - - - - - - -
25/11:00pm 28.2 SW 6 7 1008.1 - 0.0 - - - - - - -
25/10:30pm 28.4 S 5 5 1008.3 - 0.0 - - - - - - -
25/10:00pm 28.5 SSE 5 5 1008.0 - 0.0 - - - - - - -
25/09:30pm 28.6 SSE 6 7 1007.9 - 0.0 - - - - - - -
25/09:00pm 28.7 S 6 8 1007.7 - 0.0 - - - - - - -
25/08:30pm 28.8 SSE 9 10 1007.6 - 0.0 - - - - - - -
25/08:00pm 28.9 S 8 10 1007.3 - 0.0 - - - - - - -
25/07:30pm 28.9 SSE 8 9 1007.1 - 0.0 - - - - - - -
25/07:00pm 28.9 SE 9 11 1006.6 - 0.0 - - - - - - -
25/06:30pm 29.0 SE 10 13 1006.3 - 0.0 - - - - - - -
25/06:00pm 29.0 ESE 10 12 1005.9 - 0.0 - - - - - - -
25/05:30pm 29.2 SSE 14 17 1005.7 - 0.0 - - - - - - -
25/05:00pm 29.2 SSE 13 14 1005.7 - 0.0 - - - - - - -
25/04:30pm 30.1 SE 12 14 1005.7 - 0.0 - - - - - - -
25/04:00pm 30.9 SE 10 12 1005.4 - 0.0 - - - - - - -
25/03:30pm 30.8 SE 10 11 1005.0 - 0.0 - - - - - - -

Other Formats:

Comma delimited format used in spreadsheet applications
http://www.bom.gov.au/fwo/IDQ60701/IDQ60701.94285.axf

JavaScript Object Notation format (JSON) in row-major order
http://www.bom.gov.au/fwo/IDQ60701/IDQ60701.94285.json